sensor_id;sensor_type;location;lat;lon;timestamp;temperature;humidity
29917;DHT22;16786;49.466;11.068;2023-03-11T00:00:55;2.70;99.90
29917;DHT22;16786;49.466;11.068;2023-03-11T00:03:22;2.70;99.90
29917;DHT22;16786;49.466;11.068;2023-03-11T00:05:52;2.60;99.90
29917;DHT22;16786;49.466;11.068;2023-03-11T00:08:22;2.60;99.90
29917;DHT22;16786;49.466;11.068;2023-03-11T00:10:57;2.60;99.90
29917;DHT22;16786;49.466;11.068;2023-03-11T00:13:27;2.60;99.90
29917;DHT22;16786;49.466;11.068;2023-03-11T00:15:56;2.60;99.90
29917;DHT22;16786;49.466;11.068;2023-03-11T00:18:25;2.50;99.90
29917;DHT22;16786;49.466;11.068;2023-03-11T00:20:54;2.50;99.90
29917;DHT22;16786;49.466;11.068;2023-03-11T00:23:23;2.50;99.90
29917;DHT22;16786;49.466;11.068;2023-03-11T00:25:51;2.40;99.90
29917;DHT22;16786;49.466;11.068;2023-03-11T00:28:18;2.40;99.90
29917;DHT22;16786;49.466;11.068;2023-03-11T00:30:48;2.40;99.90
29917;DHT22;16786;49.466;11.068;2023-03-11T00:33:15;2.40;99.90
29917;DHT22;16786;49.466;11.068;2023-03-11T00:35:43;2.40;99.90
29917;DHT22;16786;49.466;11.068;2023-03-11T00:38:13;2.40;99.90
29917;DHT22;16786;49.466;11.068;2023-03-11T00:40:45;2.30;99.90
29917;DHT22;16786;49.466;11.068;2023-03-11T00:43:13;2.30;99.90
29917;DHT22;16786;49.466;11.068;2023-03-11T00:45:41;2.30;99.90
29917;DHT22;16786;49.466;11.068;2023-03-11T00:48:10;2.30;99.90
29917;DHT22;16786;49.466;11.068;2023-03-11T00:50:37;2.30;99.90
29917;DHT22;16786;49.466;11.068;2023-03-11T00:53:05;2.30;99.90
29917;DHT22;16786;49.466;11.068;2023-03-11T00:55:33;2.30;99.90
29917;DHT22;16786;49.466;11.068;2023-03-11T00:58:05;2.30;99.90
29917;DHT22;16786;49.466;11.068;2023-03-11T01:00:53;2.30;99.90
29917;DHT22;16786;49.466;11.068;2023-03-11T01:03:20;2.20;99.90
29917;DHT22;16786;49.466;11.068;2023-03-11T01:05:48;2.20;99.90
29917;DHT22;16786;49.466;11.068;2023-03-11T01:08:16;2.20;99.90
29917;DHT22;16786;49.466;11.068;2023-03-11T01:10:43;2.20;99.90
29917;DHT22;16786;49.466;11.068;2023-03-11T01:13:11;2.20;99.90
29917;DHT22;16786;49.466;11.068;2023-03-11T01:15:38;2.10;99.90
29917;DHT22;16786;49.466;11.068;2023-03-11T01:18:06;2.10;99.90
29917;DHT22;16786;49.466;11.068;2023-03-11T01:20:34;2.10;99.90
29917;DHT22;16786;49.466;11.068;2023-03-11T01:23:02;2.00;99.90
29917;DHT22;16786;49.466;11.068;2023-03-11T01:25:30;2.00;99.90
29917;DHT22;16786;49.466;11.068;2023-03-11T01:27:58;1.90;99.90
29917;DHT22;16786;49.466;11.068;2023-03-11T01:30:27;1.90;99.90
29917;DHT22;16786;49.466;11.068;2023-03-11T01:32:56;1.80;99.90
29917;DHT22;16786;49.466;11.068;2023-03-11T01:35:26;1.80;99.90
29917;DHT22;16786;49.466;11.068;2023-03-11T01:37:54;1.80;99.90
29917;DHT22;16786;49.466;11.068;2023-03-11T01:43:05;1.80;99.90
29917;DHT22;16786;49.466;11.068;2023-03-11T01:48:19;1.70;99.90
29917;DHT22;16786;49.466;11.068;2023-03-11T01:50:48;1.80;99.90
29917;DHT22;16786;49.466;11.068;2023-03-11T01:53:17;1.70;99.90
29917;DHT22;16786;49.466;11.068;2023-03-11T01:55:45;1.70;99.90
29917;DHT22;16786;49.466;11.068;2023-03-11T01:58:17;1.70;99.90
29917;DHT22;16786;49.466;11.068;2023-03-11T02:00:46;1.70;99.90
29917;DHT22;16786;49.466;11.068;2023-03-11T02:03:20;1.70;99.90
29917;DHT22;16786;49.466;11.068;2023-03-11T02:05:51;1.70;99.90
29917;DHT22;16786;49.466;11.068;2023-03-11T02:08:20;1.70;99.90
29917;DHT22;16786;49.466;11.068;2023-03-11T02:10:48;1.70;99.90
29917;DHT22;16786;49.466;11.068;2023-03-11T02:13:16;1.70;99.90
29917;DHT22;16786;49.466;11.068;2023-03-11T02:15:44;1.60;99.90
29917;DHT22;16786;49.466;11.068;2023-03-11T02:18:12;1.60;99.90
29917;DHT22;16786;49.466;11.068;2023-03-11T02:20:48;1.60;99.90
29917;DHT22;16786;49.466;11.068;2023-03-11T02:23:21;1.60;99.90
29917;DHT22;16786;49.466;11.068;2023-03-11T02:26:00;1.60;99.90
29917;DHT22;16786;49.466;11.068;2023-03-11T02:28:31;1.60;99.90
29917;DHT22;16786;49.466;11.068;2023-03-11T02:31:00;1.60;99.90
29917;DHT22;16786;49.466;11.068;2023-03-11T02:33:31;1.50;99.90
29917;DHT22;16786;49.466;11.068;2023-03-11T02:35:58;1.50;99.90
29917;DHT22;16786;49.466;11.068;2023-03-11T02:38:25;1.60;99.90
29917;DHT22;16786;49.466;11.068;2023-03-11T02:40:58;1.50;99.90
29917;DHT22;16786;49.466;11.068;2023-03-11T02:43:47;1.50;99.90
29917;DHT22;16786;49.466;11.068;2023-03-11T02:46:16;1.50;99.90
29917;DHT22;16786;49.466;11.068;2023-03-11T02:48:46;1.50;99.90
29917;DHT22;16786;49.466;11.068;2023-03-11T02:51:14;1.50;99.90
29917;DHT22;16786;49.466;11.068;2023-03-11T02:53:48;1.40;99.90
29917;DHT22;16786;49.466;11.068;2023-03-11T02:56:17;1.40;99.90
29917;DHT22;16786;49.466;11.068;2023-03-11T02:58:44;1.40;99.90
29917;DHT22;16786;49.466;11.068;2023-03-11T03:01:11;1.40;99.90
29917;DHT22;16786;49.466;11.068;2023-03-11T03:03:42;1.40;99.90
29917;DHT22;16786;49.466;11.068;2023-03-11T03:06:09;1.40;99.90
29917;DHT22;16786;49.466;11.068;2023-03-11T03:08:37;1.40;99.90
29917;DHT22;16786;49.466;11.068;2023-03-11T03:11:05;1.40;99.90
29917;DHT22;16786;49.466;11.068;2023-03-11T03:13:32;1.30;99.90
29917;DHT22;16786;49.466;11.068;2023-03-11T03:16:00;1.30;99.90
29917;DHT22;16786;49.466;11.068;2023-03-11T03:18:27;1.30;99.90
29917;DHT22;16786;49.466;11.068;2023-03-11T03:20:54;1.20;99.90
29917;DHT22;16786;49.466;11.068;2023-03-11T03:23:22;1.20;99.90
29917;DHT22;16786;49.466;11.068;2023-03-11T03:25:49;1.30;99.90
29917;DHT22;16786;49.466;11.068;2023-03-11T03:28:17;1.20;99.90
29917;DHT22;16786;49.466;11.068;2023-03-11T03:30:45;1.20;99.90
29917;DHT22;16786;49.466;11.068;2023-03-11T03:33:13;1.20;99.90
29917;DHT22;16786;49.466;11.068;2023-03-11T03:35:42;1.10;99.90
29917;DHT22;16786;49.466;11.068;2023-03-11T03:38:20;1.10;99.90
29917;DHT22;16786;49.466;11.068;2023-03-11T03:40:49;1.10;99.90
29917;DHT22;16786;49.466;11.068;2023-03-11T03:43:19;1.20;99.90
29917;DHT22;16786;49.466;11.068;2023-03-11T03:46:02;1.10;99.90
29917;DHT22;16786;49.466;11.068;2023-03-11T03:48:34;1.10;99.90
29917;DHT22;16786;49.466;11.068;2023-03-11T03:51:07;1.10;99.90
29917;DHT22;16786;49.466;11.068;2023-03-11T03:53:37;1.10;99.90
29917;DHT22;16786;49.466;11.068;2023-03-11T03:56:09;1.10;99.90
29917;DHT22;16786;49.466;11.068;2023-03-11T03:58:37;1.10;99.90
29917;DHT22;16786;49.466;11.068;2023-03-11T04:01:06;1.10;99.90
29917;DHT22;16786;49.466;11.068;2023-03-11T04:03:35;1.10;99.90
29917;DHT22;16786;49.466;11.068;2023-03-11T04:06:09;1.10;99.90
29917;DHT22;16786;49.466;11.068;2023-03-11T04:08:37;1.10;99.90
29917;DHT22;16786;49.466;11.068;2023-03-11T04:11:08;1.00;99.90
29917;DHT22;16786;49.466;11.068;2023-03-11T04:13:36;1.10;99.90
29917;DHT22;16786;49.466;11.068;2023-03-11T04:16:05;1.10;99.90
29917;DHT22;16786;49.466;11.068;2023-03-11T04:18:34;1.00;99.90
29917;DHT22;16786;49.466;11.068;2023-03-11T04:21:05;1.00;99.90
29917;DHT22;16786;49.466;11.068;2023-03-11T04:23:33;1.00;99.90
29917;DHT22;16786;49.466;11.068;2023-03-11T04:26:01;1.00;99.90
29917;DHT22;16786;49.466;11.068;2023-03-11T04:28:29;1.00;99.90
29917;DHT22;16786;49.466;11.068;2023-03-11T04:30:56;0.90;99.90
29917;DHT22;16786;49.466;11.068;2023-03-11T04:33:24;1.00;99.90
29917;DHT22;16786;49.466;11.068;2023-03-11T04:35:51;0.90;99.90
29917;DHT22;16786;49.466;11.068;2023-03-11T04:38:19;0.90;99.90
29917;DHT22;16786;49.466;11.068;2023-03-11T04:40:46;0.90;99.90
29917;DHT22;16786;49.466;11.068;2023-03-11T04:43:13;0.90;99.90
29917;DHT22;16786;49.466;11.068;2023-03-11T04:45:41;0.90;99.90
29917;DHT22;16786;49.466;11.068;2023-03-11T04:48:09;0.80;99.90
29917;DHT22;16786;49.466;11.068;2023-03-11T04:50:38;0.80;99.90
29917;DHT22;16786;49.466;11.068;2023-03-11T04:53:05;0.80;99.90
29917;DHT22;16786;49.466;11.068;2023-03-11T04:55:33;0.80;99.90
29917;DHT22;16786;49.466;11.068;2023-03-11T04:58:00;0.90;99.90
29917;DHT22;16786;49.466;11.068;2023-03-11T05:00:28;0.90;99.90
29917;DHT22;16786;49.466;11.068;2023-03-11T05:03:02;0.80;99.90
29917;DHT22;16786;49.466;11.068;2023-03-11T05:05:30;0.80;99.90
29917;DHT22;16786;49.466;11.068;2023-03-11T05:07:57;0.80;99.90
29917;DHT22;16786;49.466;11.068;2023-03-11T05:10:27;0.80;99.90
29917;DHT22;16786;49.466;11.068;2023-03-11T05:12:59;0.90;99.90
29917;DHT22;16786;49.466;11.068;2023-03-11T05:15:31;0.80;99.90
29917;DHT22;16786;49.466;11.068;2023-03-11T05:18:01;0.80;99.90
29917;DHT22;16786;49.466;11.068;2023-03-11T05:20:29;0.80;99.90
29917;DHT22;16786;49.466;11.068;2023-03-11T05:22:58;0.80;99.90
29917;DHT22;16786;49.466;11.068;2023-03-11T05:25:27;0.70;99.90
29917;DHT22;16786;49.466;11.068;2023-03-11T05:27:55;0.60;99.90
29917;DHT22;16786;49.466;11.068;2023-03-11T05:30:22;0.60;99.90
29917;DHT22;16786;49.466;11.068;2023-03-11T05:32:50;0.60;99.90
29917;DHT22;16786;49.466;11.068;2023-03-11T05:35:18;0.60;99.90
29917;DHT22;16786;49.466;11.068;2023-03-11T05:37:45;0.70;99.90
29917;DHT22;16786;49.466;11.068;2023-03-11T05:40:17;0.70;99.90
29917;DHT22;16786;49.466;11.068;2023-03-11T05:42:45;0.80;99.90
29917;DHT22;16786;49.466;11.068;2023-03-11T05:45:14;0.80;99.90
29917;DHT22;16786;49.466;11.068;2023-03-11T05:47:44;0.80;99.90
29917;DHT22;16786;49.466;11.068;2023-03-11T05:50:14;0.80;99.90
29917;DHT22;16786;49.466;11.068;2023-03-11T05:52:44;0.80;99.90
29917;DHT22;16786;49.466;11.068;2023-03-11T05:55:11;0.80;99.90
29917;DHT22;16786;49.466;11.068;2023-03-11T05:57:41;0.80;99.90
29917;DHT22;16786;49.466;11.068;2023-03-11T06:00:09;0.90;99.90
29917;DHT22;16786;49.466;11.068;2023-03-11T06:02:40;1.00;99.90
29917;DHT22;16786;49.466;11.068;2023-03-11T06:05:11;0.90;99.90
29917;DHT22;16786;49.466;11.068;2023-03-11T06:07:41;1.00;99.90
29917;DHT22;16786;49.466;11.068;2023-03-11T06:10:09;1.00;99.90
29917;DHT22;16786;49.466;11.068;2023-03-11T06:12:38;1.00;99.90
29917;DHT22;16786;49.466;11.068;2023-03-11T06:15:24;1.00;99.90
29917;DHT22;16786;49.466;11.068;2023-03-11T06:17:52;1.10;99.90
29917;DHT22;16786;49.466;11.068;2023-03-11T06:20:20;1.10;99.90
29917;DHT22;16786;49.466;11.068;2023-03-11T06:22:49;1.10;99.90
29917;DHT22;16786;49.466;11.068;2023-03-11T06:25:18;1.10;99.90
29917;DHT22;16786;49.466;11.068;2023-03-11T06:27:50;1.10;99.90
29917;DHT22;16786;49.466;11.068;2023-03-11T06:30:20;1.10;99.90
29917;DHT22;16786;49.466;11.068;2023-03-11T06:32:55;1.10;99.90
29917;DHT22;16786;49.466;11.068;2023-03-11T06:35:22;1.10;99.90
29917;DHT22;16786;49.466;11.068;2023-03-11T06:37:50;1.20;99.90
29917;DHT22;16786;49.466;11.068;2023-03-11T06:40:17;1.20;99.90
29917;DHT22;16786;49.466;11.068;2023-03-11T06:42:45;1.20;99.90
29917;DHT22;16786;49.466;11.068;2023-03-11T06:45:17;1.10;99.90
29917;DHT22;16786;49.466;11.068;2023-03-11T06:47:47;1.20;99.90
29917;DHT22;16786;49.466;11.068;2023-03-11T06:50:16;1.20;99.90
29917;DHT22;16786;49.466;11.068;2023-03-11T06:52:43;1.20;99.90
29917;DHT22;16786;49.466;11.068;2023-03-11T06:55:10;1.30;99.90
29917;DHT22;16786;49.466;11.068;2023-03-11T06:57:38;1.20;99.90
29917;DHT22;16786;49.466;11.068;2023-03-11T07:00:08;1.20;99.90
29917;DHT22;16786;49.466;11.068;2023-03-11T07:02:41;1.20;99.90
29917;DHT22;16786;49.466;11.068;2023-03-11T07:05:09;1.10;99.90
29917;DHT22;16786;49.466;11.068;2023-03-11T07:07:37;1.10;99.90
29917;DHT22;16786;49.466;11.068;2023-03-11T07:10:04;1.20;99.90
29917;DHT22;16786;49.466;11.068;2023-03-11T07:12:32;1.20;99.90
29917;DHT22;16786;49.466;11.068;2023-03-11T07:14:59;1.40;99.90
29917;DHT22;16786;49.466;11.068;2023-03-11T07:17:29;1.40;99.90
29917;DHT22;16786;49.466;11.068;2023-03-11T07:19:56;1.50;99.90
29917;DHT22;16786;49.466;11.068;2023-03-11T07:22:23;1.60;99.90
29917;DHT22;16786;49.466;11.068;2023-03-11T07:24:51;1.70;99.90
29917;DHT22;16786;49.466;11.068;2023-03-11T07:27:18;1.80;99.90
29917;DHT22;16786;49.466;11.068;2023-03-11T07:29:46;1.90;99.90
29917;DHT22;16786;49.466;11.068;2023-03-11T07:32:13;1.80;99.90
29917;DHT22;16786;49.466;11.068;2023-03-11T07:34:41;1.90;99.90
29917;DHT22;16786;49.466;11.068;2023-03-11T07:37:08;2.00;99.90
29917;DHT22;16786;49.466;11.068;2023-03-11T07:39:36;2.20;99.90
29917;DHT22;16786;49.466;11.068;2023-03-11T07:42:04;2.10;99.90
29917;DHT22;16786;49.466;11.068;2023-03-11T07:44:35;2.10;99.90
29917;DHT22;16786;49.466;11.068;2023-03-11T07:47:04;2.00;99.90
29917;DHT22;16786;49.466;11.068;2023-03-11T07:49:32;1.90;99.90
29917;DHT22;16786;49.466;11.068;2023-03-11T07:51:59;1.80;99.90
29917;DHT22;16786;49.466;11.068;2023-03-11T07:54:27;1.80;99.90
29917;DHT22;16786;49.466;11.068;2023-03-11T07:56:54;1.90;99.90
29917;DHT22;16786;49.466;11.068;2023-03-11T07:59:21;1.90;99.90
29917;DHT22;16786;49.466;11.068;2023-03-11T08:01:49;1.90;99.90
29917;DHT22;16786;49.466;11.068;2023-03-11T08:04:16;2.10;99.90
29917;DHT22;16786;49.466;11.068;2023-03-11T08:06:45;2.00;99.90
29917;DHT22;16786;49.466;11.068;2023-03-11T08:09:13;2.10;99.90
29917;DHT22;16786;49.466;11.068;2023-03-11T08:11:40;2.10;99.90
29917;DHT22;16786;49.466;11.068;2023-03-11T08:14:08;2.30;99.90
29917;DHT22;16786;49.466;11.068;2023-03-11T08:16:37;2.50;99.90
29917;DHT22;16786;49.466;11.068;2023-03-11T08:19:05;2.50;99.90
29917;DHT22;16786;49.466;11.068;2023-03-11T08:21:32;2.30;99.90
29917;DHT22;16786;49.466;11.068;2023-03-11T08:24:00;2.30;99.90
29917;DHT22;16786;49.466;11.068;2023-03-11T08:26:29;2.30;99.90
29917;DHT22;16786;49.466;11.068;2023-03-11T08:28:58;2.30;99.90
29917;DHT22;16786;49.466;11.068;2023-03-11T08:31:28;2.40;99.90
29917;DHT22;16786;49.466;11.068;2023-03-11T08:33:59;2.40;99.90
29917;DHT22;16786;49.466;11.068;2023-03-11T08:36:27;2.50;99.90
29917;DHT22;16786;49.466;11.068;2023-03-11T08:38:54;2.50;99.90
29917;DHT22;16786;49.466;11.068;2023-03-11T08:41:22;2.60;99.90
29917;DHT22;16786;49.466;11.068;2023-03-11T08:43:49;2.70;99.90
29917;DHT22;16786;49.466;11.068;2023-03-11T08:46:37;2.60;99.90
29917;DHT22;16786;49.466;11.068;2023-03-11T08:49:05;2.90;99.90
29917;DHT22;16786;49.466;11.068;2023-03-11T08:51:33;2.90;99.90
29917;DHT22;16786;49.466;11.068;2023-03-11T08:54:02;3.00;99.90
29917;DHT22;16786;49.466;11.068;2023-03-11T08:56:29;3.00;99.90
29917;DHT22;16786;49.466;11.068;2023-03-11T08:58:56;3.20;99.90
29917;DHT22;16786;49.466;11.068;2023-03-11T09:01:24;3.20;99.90
29917;DHT22;16786;49.466;11.068;2023-03-11T09:03:51;3.30;99.90
29917;DHT22;16786;49.466;11.068;2023-03-11T09:06:19;3.30;99.90
29917;DHT22;16786;49.466;11.068;2023-03-11T09:08:47;3.50;99.90
29917;DHT22;16786;49.466;11.068;2023-03-11T09:11:16;3.40;99.90
29917;DHT22;16786;49.466;11.068;2023-03-11T09:13:43;3.50;99.90
29917;DHT22;16786;49.466;11.068;2023-03-11T09:16:16;3.50;99.90
29917;DHT22;16786;49.466;11.068;2023-03-11T09:18:44;3.40;99.90
29917;DHT22;16786;49.466;11.068;2023-03-11T09:21:12;3.60;99.90
29917;DHT22;16786;49.466;11.068;2023-03-11T09:23:40;3.80;99.90
29917;DHT22;16786;49.466;11.068;2023-03-11T09:26:10;4.00;99.90
29917;DHT22;16786;49.466;11.068;2023-03-11T09:28:40;3.80;99.90
29917;DHT22;16786;49.466;11.068;2023-03-11T09:31:08;3.80;99.90
29917;DHT22;16786;49.466;11.068;2023-03-11T09:33:40;3.60;99.90
29917;DHT22;16786;49.466;11.068;2023-03-11T09:36:14;3.30;99.90
29917;DHT22;16786;49.466;11.068;2023-03-11T09:38:43;3.30;99.90
29917;DHT22;16786;49.466;11.068;2023-03-11T09:41:32;3.10;99.90
29917;DHT22;16786;49.466;11.068;2023-03-11T09:52:39;3.60;99.90
29917;DHT22;16786;49.466;11.068;2023-03-11T09:55:33;3.70;99.90
29917;DHT22;16786;49.466;11.068;2023-03-11T09:58:07;3.70;99.90
29917;DHT22;16786;49.466;11.068;2023-03-11T10:00:36;3.60;99.90
29917;DHT22;16786;49.466;11.068;2023-03-11T10:03:06;3.40;99.90
29917;DHT22;16786;49.466;11.068;2023-03-11T10:05:41;3.20;99.90
29917;DHT22;16786;49.466;11.068;2023-03-11T10:08:37;2.70;99.90
29917;DHT22;16786;49.466;11.068;2023-03-11T10:14:17;2.30;99.90
29917;DHT22;16786;49.466;11.068;2023-03-11T10:24:53;2.20;99.90
29917;DHT22;16786;49.466;11.068;2023-03-11T10:27:29;2.50;99.90
29917;DHT22;16786;49.466;11.068;2023-03-11T10:32:58;3.30;99.90
29917;DHT22;16786;49.466;11.068;2023-03-11T10:35:37;3.60;99.90
29917;DHT22;16786;49.466;11.068;2023-03-11T10:38:17;4.20;99.90
29917;DHT22;16786;49.466;11.068;2023-03-11T10:40:47;4.20;99.90
29917;DHT22;16786;49.466;11.068;2023-03-11T10:43:37;4.10;99.90
29917;DHT22;16786;49.466;11.068;2023-03-11T10:46:17;3.50;99.90
29917;DHT22;16786;49.466;11.068;2023-03-11T10:48:44;3.40;99.90
29917;DHT22;16786;49.466;11.068;2023-03-11T10:51:16;3.50;99.90
29917;DHT22;16786;49.466;11.068;2023-03-11T10:53:54;3.90;99.90
29917;DHT22;16786;49.466;11.068;2023-03-11T10:58:52;4.20;99.90
29917;DHT22;16786;49.466;11.068;2023-03-11T11:01:20;4.40;99.90
29917;DHT22;16786;49.466;11.068;2023-03-11T11:03:50;4.30;99.90
29917;DHT22;16786;49.466;11.068;2023-03-11T11:06:33;4.20;99.90
29917;DHT22;16786;49.466;11.068;2023-03-11T11:09:14;4.50;99.90
29917;DHT22;16786;49.466;11.068;2023-03-11T11:12:12;5.20;99.90
29917;DHT22;16786;49.466;11.068;2023-03-11T11:14:48;5.70;99.90
29917;DHT22;16786;49.466;11.068;2023-03-11T11:19:49;5.60;99.90
29917;DHT22;16786;49.466;11.068;2023-03-11T11:22:19;5.60;99.90
29917;DHT22;16786;49.466;11.068;2023-03-11T11:24:48;5.50;99.90
29917;DHT22;16786;49.466;11.068;2023-03-11T11:27:20;5.30;99.90
29917;DHT22;16786;49.466;11.068;2023-03-11T11:30:12;4.90;99.90
29917;DHT22;16786;49.466;11.068;2023-03-11T11:32:39;4.60;99.90
29917;DHT22;16786;49.466;11.068;2023-03-11T11:35:13;4.60;99.90
29917;DHT22;16786;49.466;11.068;2023-03-11T11:37:52;4.50;99.90
29917;DHT22;16786;49.466;11.068;2023-03-11T11:40:31;4.20;99.90
29917;DHT22;16786;49.466;11.068;2023-03-11T11:43:05;4.40;99.90
29917;DHT22;16786;49.466;11.068;2023-03-11T11:45:47;4.50;99.90
29917;DHT22;16786;49.466;11.068;2023-03-11T11:48:23;4.80;99.90
29917;DHT22;16786;49.466;11.068;2023-03-11T11:50:59;5.10;99.90
29917;DHT22;16786;49.466;11.068;2023-03-11T11:53:38;5.20;99.90
29917;DHT22;16786;49.466;11.068;2023-03-11T11:56:07;5.30;99.90
29917;DHT22;16786;49.466;11.068;2023-03-11T11:58:34;5.20;99.90
29917;DHT22;16786;49.466;11.068;2023-03-11T12:06:34;7.00;99.90
29917;DHT22;16786;49.466;11.068;2023-03-11T12:09:20;7.10;99.90
29917;DHT22;16786;49.466;11.068;2023-03-11T12:11:58;6.70;99.90
29917;DHT22;16786;49.466;11.068;2023-03-11T12:17:24;5.70;99.90
29917;DHT22;16786;49.466;11.068;2023-03-11T12:20:05;5.40;99.90
29917;DHT22;16786;49.466;11.068;2023-03-11T12:30:55;4.70;99.90
29917;DHT22;16786;49.466;11.068;2023-03-11T12:33:55;4.50;99.90
29917;DHT22;16786;49.466;11.068;2023-03-11T12:38:52;4.00;99.90
29917;DHT22;16786;49.466;11.068;2023-03-11T12:41:28;4.00;99.90
29917;DHT22;16786;49.466;11.068;2023-03-11T12:44:00;3.90;99.90
29917;DHT22;16786;49.466;11.068;2023-03-11T12:49:44;3.70;99.90
29917;DHT22;16786;49.466;11.068;2023-03-11T12:54:45;4.10;99.90
29917;DHT22;16786;49.466;11.068;2023-03-11T13:05:20;4.50;99.90
29917;DHT22;16786;49.466;11.068;2023-03-11T13:08:06;4.50;99.90
29917;DHT22;16786;49.466;11.068;2023-03-11T13:18:46;3.80;99.90
29917;DHT22;16786;49.466;11.068;2023-03-11T13:26:47;3.60;99.90
29917;DHT22;16786;49.466;11.068;2023-03-11T13:29:51;3.60;99.90
29917;DHT22;16786;49.466;11.068;2023-03-11T13:40:45;3.40;99.90
29917;DHT22;16786;49.466;11.068;2023-03-11T13:43:16;3.40;99.90
29917;DHT22;16786;49.466;11.068;2023-03-11T13:46:04;3.50;99.90
29917;DHT22;16786;49.466;11.068;2023-03-11T13:48:38;3.50;99.90
29917;DHT22;16786;49.466;11.068;2023-03-11T13:51:46;3.70;99.90
29917;DHT22;16786;49.466;11.068;2023-03-11T13:56:56;3.80;99.90
29917;DHT22;16786;49.466;11.068;2023-03-11T14:01:59;3.80;99.90
29917;DHT22;16786;49.466;11.068;2023-03-11T14:04:35;3.90;99.90
29917;DHT22;16786;49.466;11.068;2023-03-11T14:07:33;3.80;99.90
29917;DHT22;16786;49.466;11.068;2023-03-11T14:12:37;3.80;99.90
29917;DHT22;16786;49.466;11.068;2023-03-11T14:15:07;3.90;99.90
29917;DHT22;16786;49.466;11.068;2023-03-11T14:17:35;3.90;99.90
29917;DHT22;16786;49.466;11.068;2023-03-11T14:22:49;3.90;99.90
29917;DHT22;16786;49.466;11.068;2023-03-11T14:25:27;3.90;99.90
29917;DHT22;16786;49.466;11.068;2023-03-11T14:28:00;4.00;99.90
29917;DHT22;16786;49.466;11.068;2023-03-11T14:30:30;3.90;99.90
29917;DHT22;16786;49.466;11.068;2023-03-11T14:33:03;4.00;99.90
29917;DHT22;16786;49.466;11.068;2023-03-11T14:35:33;4.10;99.90
29917;DHT22;16786;49.466;11.068;2023-03-11T14:38:00;4.30;99.90
29917;DHT22;16786;49.466;11.068;2023-03-11T14:40:32;4.40;99.90
29917;DHT22;16786;49.466;11.068;2023-03-11T14:43:06;4.50;99.90
29917;DHT22;16786;49.466;11.068;2023-03-11T14:45:34;4.70;99.90
29917;DHT22;16786;49.466;11.068;2023-03-11T14:48:29;4.90;99.90
29917;DHT22;16786;49.466;11.068;2023-03-11T14:51:01;5.30;99.90
29917;DHT22;16786;49.466;11.068;2023-03-11T14:56:21;5.00;99.90
29917;DHT22;16786;49.466;11.068;2023-03-11T14:59:21;4.80;99.90
29917;DHT22;16786;49.466;11.068;2023-03-11T15:01:55;4.90;99.90
29917;DHT22;16786;49.466;11.068;2023-03-11T15:04:32;4.70;99.90
29917;DHT22;16786;49.466;11.068;2023-03-11T15:07:03;4.60;99.90
29917;DHT22;16786;49.466;11.068;2023-03-11T15:09:31;4.60;99.90
29917;DHT22;16786;49.466;11.068;2023-03-11T15:12:00;4.50;99.90
29917;DHT22;16786;49.466;11.068;2023-03-11T15:14:32;4.40;99.90
29917;DHT22;16786;49.466;11.068;2023-03-11T15:20:31;4.20;99.90
29917;DHT22;16786;49.466;11.068;2023-03-11T15:23:03;4.20;99.90
29917;DHT22;16786;49.466;11.068;2023-03-11T15:25:33;4.10;99.90
29917;DHT22;16786;49.466;11.068;2023-03-11T15:28:24;4.00;99.90
29917;DHT22;16786;49.466;11.068;2023-03-11T15:33:43;3.70;99.90
29917;DHT22;16786;49.466;11.068;2023-03-11T15:36:37;3.70;99.90
29917;DHT22;16786;49.466;11.068;2023-03-11T15:41:56;3.50;99.90
29917;DHT22;16786;49.466;11.068;2023-03-11T15:44:30;3.40;99.90
29917;DHT22;16786;49.466;11.068;2023-03-11T15:46:59;3.40;99.90
29917;DHT22;16786;49.466;11.068;2023-03-11T15:49:28;3.40;99.90
29917;DHT22;16786;49.466;11.068;2023-03-11T15:52:00;3.30;99.90
29917;DHT22;16786;49.466;11.068;2023-03-11T15:54:27;3.30;99.90
29917;DHT22;16786;49.466;11.068;2023-03-11T15:56:56;3.30;99.90
29917;DHT22;16786;49.466;11.068;2023-03-11T15:59:25;3.20;99.90
29917;DHT22;16786;49.466;11.068;2023-03-11T16:01:54;3.20;99.90
29917;DHT22;16786;49.466;11.068;2023-03-11T16:04:21;3.20;99.90
29917;DHT22;16786;49.466;11.068;2023-03-11T16:06:49;3.10;99.90
29917;DHT22;16786;49.466;11.068;2023-03-11T16:09:32;3.10;99.90
29917;DHT22;16786;49.466;11.068;2023-03-11T16:12:01;3.10;99.90
29917;DHT22;16786;49.466;11.068;2023-03-11T16:14:28;3.10;99.90
29917;DHT22;16786;49.466;11.068;2023-03-11T16:16:55;3.10;99.90
29917;DHT22;16786;49.466;11.068;2023-03-11T16:19:23;3.10;99.90
29917;DHT22;16786;49.466;11.068;2023-03-11T16:21:50;3.10;99.90
29917;DHT22;16786;49.466;11.068;2023-03-11T16:24:20;3.10;99.90
29917;DHT22;16786;49.466;11.068;2023-03-11T16:26:49;3.00;99.90
29917;DHT22;16786;49.466;11.068;2023-03-11T16:29:18;2.90;99.90
29917;DHT22;16786;49.466;11.068;2023-03-11T16:31:46;2.90;99.90
29917;DHT22;16786;49.466;11.068;2023-03-11T16:34:14;2.90;99.90
29917;DHT22;16786;49.466;11.068;2023-03-11T16:36:42;3.00;99.90
29917;DHT22;16786;49.466;11.068;2023-03-11T16:39:09;3.00;99.90
29917;DHT22;16786;49.466;11.068;2023-03-11T16:41:42;3.00;99.90
29917;DHT22;16786;49.466;11.068;2023-03-11T16:44:09;3.00;99.90
29917;DHT22;16786;49.466;11.068;2023-03-11T16:46:37;3.00;99.90
29917;DHT22;16786;49.466;11.068;2023-03-11T16:49:04;2.90;99.90
29917;DHT22;16786;49.466;11.068;2023-03-11T16:51:32;2.90;99.90
29917;DHT22;16786;49.466;11.068;2023-03-11T16:54:00;2.90;99.90
29917;DHT22;16786;49.466;11.068;2023-03-11T16:56:27;2.90;99.90
29917;DHT22;16786;49.466;11.068;2023-03-11T16:58:55;2.80;99.90
29917;DHT22;16786;49.466;11.068;2023-03-11T17:01:22;2.70;99.90
29917;DHT22;16786;49.466;11.068;2023-03-11T17:03:49;2.60;99.90
29917;DHT22;16786;49.466;11.068;2023-03-11T17:06:18;2.70;99.90
29917;DHT22;16786;49.466;11.068;2023-03-11T17:08:48;2.70;99.90
29917;DHT22;16786;49.466;11.068;2023-03-11T17:11:20;2.70;99.90
29917;DHT22;16786;49.466;11.068;2023-03-11T17:13:51;2.60;99.90
29917;DHT22;16786;49.466;11.068;2023-03-11T17:16:20;2.60;99.90
29917;DHT22;16786;49.466;11.068;2023-03-11T17:18:49;2.60;99.90
29917;DHT22;16786;49.466;11.068;2023-03-11T17:21:17;2.50;99.90
29917;DHT22;16786;49.466;11.068;2023-03-11T17:23:44;2.40;99.90
29917;DHT22;16786;49.466;11.068;2023-03-11T17:26:14;2.40;99.90
29917;DHT22;16786;49.466;11.068;2023-03-11T17:28:42;2.40;99.90
29917;DHT22;16786;49.466;11.068;2023-03-11T17:31:12;2.40;99.90
29917;DHT22;16786;49.466;11.068;2023-03-11T17:33:40;2.40;99.90
29917;DHT22;16786;49.466;11.068;2023-03-11T17:36:09;2.30;99.90
29917;DHT22;16786;49.466;11.068;2023-03-11T17:38:37;2.30;99.90
29917;DHT22;16786;49.466;11.068;2023-03-11T17:41:12;2.20;99.90
29917;DHT22;16786;49.466;11.068;2023-03-11T17:43:40;2.20;99.90